sensor_id;sensor_type;location;lat;lon;timestamp;temperature;humidity
15656;DHT22;7928;43.614;1.456;2023-02-15T00:02:01;9.60;99.90
15656;DHT22;7928;43.614;1.456;2023-02-15T00:04:28;9.60;99.90
15656;DHT22;7928;43.614;1.456;2023-02-15T00:07:14;9.60;99.90
15656;DHT22;7928;43.614;1.456;2023-02-15T00:09:41;9.60;99.90
15656;DHT22;7928;43.614;1.456;2023-02-15T00:12:09;9.60;99.90
15656;DHT22;7928;43.614;1.456;2023-02-15T00:14:36;9.60;99.90
15656;DHT22;7928;43.614;1.456;2023-02-15T00:17:04;9.60;99.90
15656;DHT22;7928;43.614;1.456;2023-02-15T00:19:31;9.60;99.90
15656;DHT22;7928;43.614;1.456;2023-02-15T00:21:58;9.60;99.90
15656;DHT22;7928;43.614;1.456;2023-02-15T00:24:27;9.50;99.90
15656;DHT22;7928;43.614;1.456;2023-02-15T00:26:54;9.50;99.90
15656;DHT22;7928;43.614;1.456;2023-02-15T00:29:21;9.50;99.90
15656;DHT22;7928;43.614;1.456;2023-02-15T00:31:48;9.50;99.90
15656;DHT22;7928;43.614;1.456;2023-02-15T00:34:18;9.60;99.90
15656;DHT22;7928;43.614;1.456;2023-02-15T00:36:45;9.50;99.90
15656;DHT22;7928;43.614;1.456;2023-02-15T00:39:13;9.50;99.90
15656;DHT22;7928;43.614;1.456;2023-02-15T00:41:41;9.50;99.90
15656;DHT22;7928;43.614;1.456;2023-02-15T00:44:09;9.50;99.90
15656;DHT22;7928;43.614;1.456;2023-02-15T00:46:36;9.50;99.90
15656;DHT22;7928;43.614;1.456;2023-02-15T00:49:03;9.60;99.90
15656;DHT22;7928;43.614;1.456;2023-02-15T00:51:31;9.50;99.90
15656;DHT22;7928;43.614;1.456;2023-02-15T00:53:58;9.50;99.90
15656;DHT22;7928;43.614;1.456;2023-02-15T00:56:25;9.50;99.90
15656;DHT22;7928;43.614;1.456;2023-02-15T00:58:55;9.50;99.90
15656;DHT22;7928;43.614;1.456;2023-02-15T01:01:22;9.50;99.90
15656;DHT22;7928;43.614;1.456;2023-02-15T01:03:51;9.50;99.90
15656;DHT22;7928;43.614;1.456;2023-02-15T01:06:18;9.50;99.90
15656;DHT22;7928;43.614;1.456;2023-02-15T01:08:45;9.50;99.90
15656;DHT22;7928;43.614;1.456;2023-02-15T01:11:15;9.50;99.90
15656;DHT22;7928;43.614;1.456;2023-02-15T01:13:47;9.50;99.90
15656;DHT22;7928;43.614;1.456;2023-02-15T01:16:16;9.50;99.90
15656;DHT22;7928;43.614;1.456;2023-02-15T01:18:44;9.50;99.90
15656;DHT22;7928;43.614;1.456;2023-02-15T01:21:12;9.40;99.90
15656;DHT22;7928;43.614;1.456;2023-02-15T01:23:40;9.40;99.90
15656;DHT22;7928;43.614;1.456;2023-02-15T01:26:07;9.40;99.90
15656;DHT22;7928;43.614;1.456;2023-02-15T01:28:35;9.40;99.90
15656;DHT22;7928;43.614;1.456;2023-02-15T01:31:05;9.40;99.90
15656;DHT22;7928;43.614;1.456;2023-02-15T01:33:34;9.40;99.90
15656;DHT22;7928;43.614;1.456;2023-02-15T01:36:03;9.40;99.90
15656;DHT22;7928;43.614;1.456;2023-02-15T01:38:30;9.40;99.90
15656;DHT22;7928;43.614;1.456;2023-02-15T01:40:57;9.40;99.90
15656;DHT22;7928;43.614;1.456;2023-02-15T01:43:47;9.40;99.90
15656;DHT22;7928;43.614;1.456;2023-02-15T01:46:17;9.40;99.90
15656;DHT22;7928;43.614;1.456;2023-02-15T01:48:48;9.30;99.90
15656;DHT22;7928;43.614;1.456;2023-02-15T01:51:20;9.40;99.90
15656;DHT22;7928;43.614;1.456;2023-02-15T01:53:52;9.30;99.90
15656;DHT22;7928;43.614;1.456;2023-02-15T01:56:23;9.30;99.90
15656;DHT22;7928;43.614;1.456;2023-02-15T01:58:53;9.30;99.90
15656;DHT22;7928;43.614;1.456;2023-02-15T02:01:24;9.30;99.90
15656;DHT22;7928;43.614;1.456;2023-02-15T02:03:59;9.30;99.90
15656;DHT22;7928;43.614;1.456;2023-02-15T02:06:28;9.30;99.90
15656;DHT22;7928;43.614;1.456;2023-02-15T02:08:56;9.30;99.90
15656;DHT22;7928;43.614;1.456;2023-02-15T02:11:23;9.30;99.90
15656;DHT22;7928;43.614;1.456;2023-02-15T02:13:51;9.30;99.90
15656;DHT22;7928;43.614;1.456;2023-02-15T02:16:23;9.30;99.90
15656;DHT22;7928;43.614;1.456;2023-02-15T02:19:04;9.30;99.90
15656;DHT22;7928;43.614;1.456;2023-02-15T02:22:00;9.30;99.90
15656;DHT22;7928;43.614;1.456;2023-02-15T02:24:50;9.30;99.90
15656;DHT22;7928;43.614;1.456;2023-02-15T02:27:29;9.30;99.90
15656;DHT22;7928;43.614;1.456;2023-02-15T02:36:09;9.20;99.90
15656;DHT22;7928;43.614;1.456;2023-02-15T02:38:48;9.20;99.90
15656;DHT22;7928;43.614;1.456;2023-02-15T02:41:26;9.20;99.90
15656;DHT22;7928;43.614;1.456;2023-02-15T02:43:59;9.20;99.90
15656;DHT22;7928;43.614;1.456;2023-02-15T02:46:33;9.20;99.90
15656;DHT22;7928;43.614;1.456;2023-02-15T02:49:02;9.20;99.90
15656;DHT22;7928;43.614;1.456;2023-02-15T02:51:29;9.10;99.90
15656;DHT22;7928;43.614;1.456;2023-02-15T02:53:58;9.10;99.90
15656;DHT22;7928;43.614;1.456;2023-02-15T02:56:30;9.20;99.90
15656;DHT22;7928;43.614;1.456;2023-02-15T02:59:01;9.10;99.90
15656;DHT22;7928;43.614;1.456;2023-02-15T03:01:34;9.10;99.90
15656;DHT22;7928;43.614;1.456;2023-02-15T03:04:06;9.10;99.90
15656;DHT22;7928;43.614;1.456;2023-02-15T03:06:39;9.10;99.90
15656;DHT22;7928;43.614;1.456;2023-02-15T03:09:11;9.10;99.90
15656;DHT22;7928;43.614;1.456;2023-02-15T03:11:47;9.10;99.90
15656;DHT22;7928;43.614;1.456;2023-02-15T03:14:16;9.10;99.90
15656;DHT22;7928;43.614;1.456;2023-02-15T03:16:47;9.00;99.90
15656;DHT22;7928;43.614;1.456;2023-02-15T03:19:19;9.00;99.90
15656;DHT22;7928;43.614;1.456;2023-02-15T03:21:49;9.00;99.90
15656;DHT22;7928;43.614;1.456;2023-02-15T03:24:34;9.00;99.90
15656;DHT22;7928;43.614;1.456;2023-02-15T03:27:03;9.00;99.90
15656;DHT22;7928;43.614;1.456;2023-02-15T03:29:31;9.00;99.90
15656;DHT22;7928;43.614;1.456;2023-02-15T03:32:02;9.00;99.90
15656;DHT22;7928;43.614;1.456;2023-02-15T03:34:31;9.00;99.90
15656;DHT22;7928;43.614;1.456;2023-02-15T03:37:05;8.90;99.90
15656;DHT22;7928;43.614;1.456;2023-02-15T03:39:36;8.90;99.90
15656;DHT22;7928;43.614;1.456;2023-02-15T03:42:10;8.90;99.90
15656;DHT22;7928;43.614;1.456;2023-02-15T03:44:45;8.90;99.90
15656;DHT22;7928;43.614;1.456;2023-02-15T03:47:17;8.90;99.90
15656;DHT22;7928;43.614;1.456;2023-02-15T03:49:50;8.80;99.90
15656;DHT22;7928;43.614;1.456;2023-02-15T03:52:21;8.80;99.90
15656;DHT22;7928;43.614;1.456;2023-02-15T03:54:49;8.80;99.90
15656;DHT22;7928;43.614;1.456;2023-02-15T03:57:19;8.70;99.90
15656;DHT22;7928;43.614;1.456;2023-02-15T04:00:11;8.50;99.90
15656;DHT22;7928;43.614;1.456;2023-02-15T04:03:19;8.30;99.90
15656;DHT22;7928;43.614;1.456;2023-02-15T04:05:50;8.00;99.90
15656;DHT22;7928;43.614;1.456;2023-02-15T04:08:17;7.90;99.90
15656;DHT22;7928;43.614;1.456;2023-02-15T04:10:44;7.70;99.90
15656;DHT22;7928;43.614;1.456;2023-02-15T04:13:22;7.70;99.90
15656;DHT22;7928;43.614;1.456;2023-02-15T04:15:50;7.60;99.90
15656;DHT22;7928;43.614;1.456;2023-02-15T04:18:32;7.50;99.90
15656;DHT22;7928;43.614;1.456;2023-02-15T04:21:20;7.40;99.90
15656;DHT22;7928;43.614;1.456;2023-02-15T04:24:05;7.40;99.90
15656;DHT22;7928;43.614;1.456;2023-02-15T04:26:50;7.30;99.90
15656;DHT22;7928;43.614;1.456;2023-02-15T04:29:18;7.20;99.90
15656;DHT22;7928;43.614;1.456;2023-02-15T04:31:46;7.20;99.90
15656;DHT22;7928;43.614;1.456;2023-02-15T04:34:13;7.10;99.90
15656;DHT22;7928;43.614;1.456;2023-02-15T04:36:42;7.10;99.90
15656;DHT22;7928;43.614;1.456;2023-02-15T04:39:12;7.00;99.90
15656;DHT22;7928;43.614;1.456;2023-02-15T04:41:40;7.10;99.90
15656;DHT22;7928;43.614;1.456;2023-02-15T04:44:07;7.00;99.90
15656;DHT22;7928;43.614;1.456;2023-02-15T04:46:34;7.00;99.90
15656;DHT22;7928;43.614;1.456;2023-02-15T04:49:02;7.00;99.90
15656;DHT22;7928;43.614;1.456;2023-02-15T04:51:29;6.90;99.90
15656;DHT22;7928;43.614;1.456;2023-02-15T04:53:57;6.90;99.90
15656;DHT22;7928;43.614;1.456;2023-02-15T04:56:24;6.80;99.90
15656;DHT22;7928;43.614;1.456;2023-02-15T04:58:51;6.80;99.90
15656;DHT22;7928;43.614;1.456;2023-02-15T05:01:28;6.80;99.90
15656;DHT22;7928;43.614;1.456;2023-02-15T05:03:55;6.70;99.90
15656;DHT22;7928;43.614;1.456;2023-02-15T05:06:22;6.70;99.90
15656;DHT22;7928;43.614;1.456;2023-02-15T05:08:49;6.70;99.90
15656;DHT22;7928;43.614;1.456;2023-02-15T05:11:18;6.70;99.90
15656;DHT22;7928;43.614;1.456;2023-02-15T05:13:45;6.70;99.90
15656;DHT22;7928;43.614;1.456;2023-02-15T05:16:12;6.70;99.90
15656;DHT22;7928;43.614;1.456;2023-02-15T05:18:39;6.70;99.90
15656;DHT22;7928;43.614;1.456;2023-02-15T05:21:06;6.60;99.90
15656;DHT22;7928;43.614;1.456;2023-02-15T05:23:33;6.60;99.90
15656;DHT22;7928;43.614;1.456;2023-02-15T05:26:00;6.60;99.90
15656;DHT22;7928;43.614;1.456;2023-02-15T05:28:45;6.60;99.90
15656;DHT22;7928;43.614;1.456;2023-02-15T05:31:14;6.60;99.90
15656;DHT22;7928;43.614;1.456;2023-02-15T05:33:43;6.60;99.90
15656;DHT22;7928;43.614;1.456;2023-02-15T05:36:10;6.60;99.90
15656;DHT22;7928;43.614;1.456;2023-02-15T05:38:38;6.60;99.90
15656;DHT22;7928;43.614;1.456;2023-02-15T05:41:06;6.60;99.90
15656;DHT22;7928;43.614;1.456;2023-02-15T05:43:34;6.50;99.90
15656;DHT22;7928;43.614;1.456;2023-02-15T05:46:03;6.50;99.90
15656;DHT22;7928;43.614;1.456;2023-02-15T05:48:30;6.40;99.90
15656;DHT22;7928;43.614;1.456;2023-02-15T05:50:58;6.40;99.90
15656;DHT22;7928;43.614;1.456;2023-02-15T05:53:26;6.50;99.90
15656;DHT22;7928;43.614;1.456;2023-02-15T05:55:53;6.40;99.90
15656;DHT22;7928;43.614;1.456;2023-02-15T05:58:24;6.40;99.90
15656;DHT22;7928;43.614;1.456;2023-02-15T06:00:51;6.40;99.90
15656;DHT22;7928;43.614;1.456;2023-02-15T06:03:20;6.40;99.90
15656;DHT22;7928;43.614;1.456;2023-02-15T06:05:47;6.40;99.90
15656;DHT22;7928;43.614;1.456;2023-02-15T06:08:15;6.40;99.90
15656;DHT22;7928;43.614;1.456;2023-02-15T06:10:42;6.40;99.90
15656;DHT22;7928;43.614;1.456;2023-02-15T06:13:09;6.40;99.90
15656;DHT22;7928;43.614;1.456;2023-02-15T06:15:36;6.40;99.90
15656;DHT22;7928;43.614;1.456;2023-02-15T06:18:03;6.60;99.90
15656;DHT22;7928;43.614;1.456;2023-02-15T06:20:32;6.90;99.90
15656;DHT22;7928;43.614;1.456;2023-02-15T06:22:59;7.30;99.90
15656;DHT22;7928;43.614;1.456;2023-02-15T06:25:26;7.60;99.90
15656;DHT22;7928;43.614;1.456;2023-02-15T06:27:53;7.80;99.90
15656;DHT22;7928;43.614;1.456;2023-02-15T06:30:20;7.90;99.90
15656;DHT22;7928;43.614;1.456;2023-02-15T06:32:47;8.00;99.90
15656;DHT22;7928;43.614;1.456;2023-02-15T06:35:14;8.00;99.90
15656;DHT22;7928;43.614;1.456;2023-02-15T06:37:45;8.20;99.90
15656;DHT22;7928;43.614;1.456;2023-02-15T06:40:12;8.20;99.90
15656;DHT22;7928;43.614;1.456;2023-02-15T06:42:39;8.30;99.90
15656;DHT22;7928;43.614;1.456;2023-02-15T06:45:08;8.30;99.90
15656;DHT22;7928;43.614;1.456;2023-02-15T06:47:36;8.30;99.90
15656;DHT22;7928;43.614;1.456;2023-02-15T06:50:03;8.40;99.90
15656;DHT22;7928;43.614;1.456;2023-02-15T06:52:30;8.40;99.90
15656;DHT22;7928;43.614;1.456;2023-02-15T06:54:59;8.40;99.90
15656;DHT22;7928;43.614;1.456;2023-02-15T06:57:26;8.50;99.90
15656;DHT22;7928;43.614;1.456;2023-02-15T06:59:53;8.50;99.90
15656;DHT22;7928;43.614;1.456;2023-02-15T07:02:20;8.60;99.90
15656;DHT22;7928;43.614;1.456;2023-02-15T07:04:47;10.00;99.90
15656;DHT22;7928;43.614;1.456;2023-02-15T07:07:14;8.60;99.90
15656;DHT22;7928;43.614;1.456;2023-02-15T07:09:41;8.60;99.90
15656;DHT22;7928;43.614;1.456;2023-02-15T07:12:10;8.60;99.90
15656;DHT22;7928;43.614;1.456;2023-02-15T07:14:54;8.60;99.90
15656;DHT22;7928;43.614;1.456;2023-02-15T07:17:21;8.70;99.90
15656;DHT22;7928;43.614;1.456;2023-02-15T07:19:48;8.70;99.90
15656;DHT22;7928;43.614;1.456;2023-02-15T07:22:15;8.70;99.90
15656;DHT22;7928;43.614;1.456;2023-02-15T07:24:42;8.80;99.90
15656;DHT22;7928;43.614;1.456;2023-02-15T07:27:11;8.80;99.90
15656;DHT22;7928;43.614;1.456;2023-02-15T07:29:38;8.90;99.90
15656;DHT22;7928;43.614;1.456;2023-02-15T07:32:05;9.00;99.90
15656;DHT22;7928;43.614;1.456;2023-02-15T07:34:32;9.00;99.90
15656;DHT22;7928;43.614;1.456;2023-02-15T07:36:59;9.10;99.90
15656;DHT22;7928;43.614;1.456;2023-02-15T07:39:26;9.10;99.90
15656;DHT22;7928;43.614;1.456;2023-02-15T07:41:53;9.20;99.90
15656;DHT22;7928;43.614;1.456;2023-02-15T07:44:22;9.20;99.90
15656;DHT22;7928;43.614;1.456;2023-02-15T07:46:49;9.30;99.90
15656;DHT22;7928;43.614;1.456;2023-02-15T07:49:15;9.30;99.90
15656;DHT22;7928;43.614;1.456;2023-02-15T07:51:43;9.30;99.90
15656;DHT22;7928;43.614;1.456;2023-02-15T07:54:10;9.30;99.90
15656;DHT22;7928;43.614;1.456;2023-02-15T07:56:37;9.40;99.90
15656;DHT22;7928;43.614;1.456;2023-02-15T07:59:04;9.40;99.90
15656;DHT22;7928;43.614;1.456;2023-02-15T08:01:34;9.40;99.90
15656;DHT22;7928;43.614;1.456;2023-02-15T08:04:02;9.50;99.90
15656;DHT22;7928;43.614;1.456;2023-02-15T08:06:31;9.50;99.90
15656;DHT22;7928;43.614;1.456;2023-02-15T08:08:59;9.50;99.90
15656;DHT22;7928;43.614;1.456;2023-02-15T08:11:28;9.50;99.90
15656;DHT22;7928;43.614;1.456;2023-02-15T08:13:59;9.50;99.90
15656;DHT22;7928;43.614;1.456;2023-02-15T08:16:30;9.60;99.90
15656;DHT22;7928;43.614;1.456;2023-02-15T08:19:01;9.60;99.90
15656;DHT22;7928;43.614;1.456;2023-02-15T08:21:29;9.70;99.90
15656;DHT22;7928;43.614;1.456;2023-02-15T08:23:57;9.70;99.90
15656;DHT22;7928;43.614;1.456;2023-02-15T08:26:25;9.80;99.90
15656;DHT22;7928;43.614;1.456;2023-02-15T08:28:54;9.80;99.90
15656;DHT22;7928;43.614;1.456;2023-02-15T08:31:22;9.90;99.90
15656;DHT22;7928;43.614;1.456;2023-02-15T08:33:50;9.90;99.90
15656;DHT22;7928;43.614;1.456;2023-02-15T08:36:21;10.00;99.90
15656;DHT22;7928;43.614;1.456;2023-02-15T08:38:49;10.00;99.90
15656;DHT22;7928;43.614;1.456;2023-02-15T08:41:17;10.00;99.90
15656;DHT22;7928;43.614;1.456;2023-02-15T08:43:47;10.10;99.90
15656;DHT22;7928;43.614;1.456;2023-02-15T08:46:15;10.20;99.90
15656;DHT22;7928;43.614;1.456;2023-02-15T08:48:43;10.30;99.90
15656;DHT22;7928;43.614;1.456;2023-02-15T08:51:12;10.40;99.90
15656;DHT22;7928;43.614;1.456;2023-02-15T08:53:44;10.50;99.90
15656;DHT22;7928;43.614;1.456;2023-02-15T08:56:11;10.60;99.90
15656;DHT22;7928;43.614;1.456;2023-02-15T08:58:38;10.60;99.90
15656;DHT22;7928;43.614;1.456;2023-02-15T09:01:10;10.80;99.90
15656;DHT22;7928;43.614;1.456;2023-02-15T09:03:37;10.90;99.90
15656;DHT22;7928;43.614;1.456;2023-02-15T09:06:05;10.90;99.90
15656;DHT22;7928;43.614;1.456;2023-02-15T09:08:32;11.10;99.90
15656;DHT22;7928;43.614;1.456;2023-02-15T09:11:09;11.20;99.90
15656;DHT22;7928;43.614;1.456;2023-02-15T09:13:36;11.40;99.90
15656;DHT22;7928;43.614;1.456;2023-02-15T09:16:05;11.50;99.90
15656;DHT22;7928;43.614;1.456;2023-02-15T09:18:35;11.50;99.90
15656;DHT22;7928;43.614;1.456;2023-02-15T09:21:07;11.60;99.90
15656;DHT22;7928;43.614;1.456;2023-02-15T09:23:35;11.60;99.90
15656;DHT22;7928;43.614;1.456;2023-02-15T09:26:04;11.70;99.90
15656;DHT22;7928;43.614;1.456;2023-02-15T09:28:33;11.70;99.90
15656;DHT22;7928;43.614;1.456;2023-02-15T09:31:09;11.90;99.90
15656;DHT22;7928;43.614;1.456;2023-02-15T09:33:37;12.00;99.90
15656;DHT22;7928;43.614;1.456;2023-02-15T09:36:15;12.00;99.90
15656;DHT22;7928;43.614;1.456;2023-02-15T09:38:43;12.20;99.90
15656;DHT22;7928;43.614;1.456;2023-02-15T09:41:34;12.40;99.90
15656;DHT22;7928;43.614;1.456;2023-02-15T09:44:11;12.50;99.40
15656;DHT22;7928;43.614;1.456;2023-02-15T09:46:59;12.70;96.70
15656;DHT22;7928;43.614;1.456;2023-02-15T09:49:36;12.80;92.10
15656;DHT22;7928;43.614;1.456;2023-02-15T09:55:10;13.10;73.30
15656;DHT22;7928;43.614;1.456;2023-02-15T09:57:44;13.40;58.30
15656;DHT22;7928;43.614;1.456;2023-02-15T10:00:23;13.50;49.00
15656;DHT22;7928;43.614;1.456;2023-02-15T10:03:07;13.60;51.10
15656;DHT22;7928;43.614;1.456;2023-02-15T10:05:44;13.90;35.60
15656;DHT22;7928;43.614;1.456;2023-02-15T10:08:32;14.20;21.60
15656;DHT22;7928;43.614;1.456;2023-02-15T10:11:11;13.90;9.60
15656;DHT22;7928;43.614;1.456;2023-02-15T10:14:10;13.60;27.80
15656;DHT22;7928;43.614;1.456;2023-02-15T10:16:50;14.30;17.50
15656;DHT22;7928;43.614;1.456;2023-02-15T10:19:28;15.40;1.00
15656;DHT22;7928;43.614;1.456;2023-02-15T10:22:06;17.50;1.00
15656;DHT22;7928;43.614;1.456;2023-02-15T10:24:49;18.60;99.90
15656;DHT22;7928;43.614;1.456;2023-02-15T10:27:21;20.40;99.90
15656;DHT22;7928;43.614;1.456;2023-02-15T10:29:59;21.70;99.90
15656;DHT22;7928;43.614;1.456;2023-02-15T10:32:36;22.70;99.90
15656;DHT22;7928;43.614;1.456;2023-02-15T10:35:14;23.00;99.90
15656;DHT22;7928;43.614;1.456;2023-02-15T10:37:52;23.70;99.90
15656;DHT22;7928;43.614;1.456;2023-02-15T10:40:26;23.40;99.90
15656;DHT22;7928;43.614;1.456;2023-02-15T10:43:14;23.50;99.90
15656;DHT22;7928;43.614;1.456;2023-02-15T10:45:52;25.10;99.90
15656;DHT22;7928;43.614;1.456;2023-02-15T10:48:33;25.90;97.90
15656;DHT22;7928;43.614;1.456;2023-02-15T10:51:06;26.80;95.80
15656;DHT22;7928;43.614;1.456;2023-02-15T10:53:51;26.80;94.00
15656;DHT22;7928;43.614;1.456;2023-02-15T10:56:24;24.10;95.60
15656;DHT22;7928;43.614;1.456;2023-02-15T10:59:13;21.80;99.10
15656;DHT22;7928;43.614;1.456;2023-02-15T11:01:47;21.60;99.90
15656;DHT22;7928;43.614;1.456;2023-02-15T11:04:44;23.70;99.60
15656;DHT22;7928;43.614;1.456;2023-02-15T11:07:16;25.60;97.00
15656;DHT22;7928;43.614;1.456;2023-02-15T11:09:49;27.10;94.60
15656;DHT22;7928;43.614;1.456;2023-02-15T11:12:19;27.90;92.00
15656;DHT22;7928;43.614;1.456;2023-02-15T11:14:52;27.60;91.40
15656;DHT22;7928;43.614;1.456;2023-02-15T11:17:24;27.20;92.10
15656;DHT22;7928;43.614;1.456;2023-02-15T11:20:00;28.20;90.30
15656;DHT22;7928;43.614;1.456;2023-02-15T11:22:31;27.50;90.20
15656;DHT22;7928;43.614;1.456;2023-02-15T11:24:59;28.30;87.70
15656;DHT22;7928;43.614;1.456;2023-02-15T11:27:29;28.50;86.50
15656;DHT22;7928;43.614;1.456;2023-02-15T11:30:00;28.90;83.90
15656;DHT22;7928;43.614;1.456;2023-02-15T11:32:30;27.30;82.50
15656;DHT22;7928;43.614;1.456;2023-02-15T11:35:03;25.20;86.70
15656;DHT22;7928;43.614;1.456;2023-02-15T11:37:35;25.20;88.80
15656;DHT22;7928;43.614;1.456;2023-02-15T11:40:16;24.80;89.20
15656;DHT22;7928;43.614;1.456;2023-02-15T11:42:45;25.80;88.20
15656;DHT22;7928;43.614;1.456;2023-02-15T11:45:21;24.60;90.00
15656;DHT22;7928;43.614;1.456;2023-02-15T11:47:49;25.10;91.00
15656;DHT22;7928;43.614;1.456;2023-02-15T11:50:21;25.90;88.20
15656;DHT22;7928;43.614;1.456;2023-02-15T11:52:49;25.10;89.00
15656;DHT22;7928;43.614;1.456;2023-02-15T11:55:20;25.70;88.10
15656;DHT22;7928;43.614;1.456;2023-02-15T11:57:53;23.80;90.20
15656;DHT22;7928;43.614;1.456;2023-02-15T12:00:30;21.70;91.90
15656;DHT22;7928;43.614;1.456;2023-02-15T12:03:07;20.80;94.60
15656;DHT22;7928;43.614;1.456;2023-02-15T12:05:40;20.50;96.60
15656;DHT22;7928;43.614;1.456;2023-02-15T12:08:17;19.90;97.20
15656;DHT22;7928;43.614;1.456;2023-02-15T12:10:57;20.10;98.10
15656;DHT22;7928;43.614;1.456;2023-02-15T12:13:24;21.20;96.10
15656;DHT22;7928;43.614;1.456;2023-02-15T12:15:54;22.40;95.00
15656;DHT22;7928;43.614;1.456;2023-02-15T12:18:34;23.60;93.50
15656;DHT22;7928;43.614;1.456;2023-02-15T12:21:07;24.90;91.50
15656;DHT22;7928;43.614;1.456;2023-02-15T12:23:41;25.40;91.20
15656;DHT22;7928;43.614;1.456;2023-02-15T12:26:09;25.50;90.80
15656;DHT22;7928;43.614;1.456;2023-02-15T12:28:39;25.20;90.80
15656;DHT22;7928;43.614;1.456;2023-02-15T12:31:18;26.20;90.90
15656;DHT22;7928;43.614;1.456;2023-02-15T12:33:46;25.20;88.70
15656;DHT22;7928;43.614;1.456;2023-02-15T12:36:18;25.70;90.00
15656;DHT22;7928;43.614;1.456;2023-02-15T12:39:02;27.20;86.10
15656;DHT22;7928;43.614;1.456;2023-02-15T12:41:29;26.60;85.60
15656;DHT22;7928;43.614;1.456;2023-02-15T12:44:09;26.70;84.30
15656;DHT22;7928;43.614;1.456;2023-02-15T12:46:42;26.20;85.00
15656;DHT22;7928;43.614;1.456;2023-02-15T12:49:17;26.00;84.80
15656;DHT22;7928;43.614;1.456;2023-02-15T12:51:49;25.90;84.50
15656;DHT22;7928;43.614;1.456;2023-02-15T12:54:26;25.90;83.30
15656;DHT22;7928;43.614;1.456;2023-02-15T12:56:55;24.80;85.20
15656;DHT22;7928;43.614;1.456;2023-02-15T12:59:24;24.40;88.20
15656;DHT22;7928;43.614;1.456;2023-02-15T13:01:52;24.90;86.10
15656;DHT22;7928;43.614;1.456;2023-02-15T13:04:23;24.60;86.40
15656;DHT22;7928;43.614;1.456;2023-02-15T13:06:54;24.40;87.00
15656;DHT22;7928;43.614;1.456;2023-02-15T13:09:26;23.10;88.40
15656;DHT22;7928;43.614;1.456;2023-02-15T13:12:10;22.90;90.40
15656;DHT22;7928;43.614;1.456;2023-02-15T13:14:44;23.10;90.50
15656;DHT22;7928;43.614;1.456;2023-02-15T13:17:12;22.60;90.40
15656;DHT22;7928;43.614;1.456;2023-02-15T13:19:43;22.30;90.90
15656;DHT22;7928;43.614;1.456;2023-02-15T13:22:15;22.20;91.20
15656;DHT22;7928;43.614;1.456;2023-02-15T13:24:46;22.10;91.30
15656;DHT22;7928;43.614;1.456;2023-02-15T13:27:16;21.60;91.70
15656;DHT22;7928;43.614;1.456;2023-02-15T13:29:46;21.30;91.90
15656;DHT22;7928;43.614;1.456;2023-02-15T13:32:26;21.50;91.50
15656;DHT22;7928;43.614;1.456;2023-02-15T13:34:57;21.70;91.70
15656;DHT22;7928;43.614;1.456;2023-02-15T13:37:37;21.50;91.70
15656;DHT22;7928;43.614;1.456;2023-02-15T13:40:14;20.50;92.40
15656;DHT22;7928;43.614;1.456;2023-02-15T13:42:46;20.60;93.40
15656;DHT22;7928;43.614;1.456;2023-02-15T13:45:37;21.20;93.00
15656;DHT22;7928;43.614;1.456;2023-02-15T13:48:15;21.30;92.60
15656;DHT22;7928;43.614;1.456;2023-02-15T13:50:56;21.60;92.70
15656;DHT22;7928;43.614;1.456;2023-02-15T13:53:48;22.00;92.00
15656;DHT22;7928;43.614;1.456;2023-02-15T13:56:26;22.40;91.40
15656;DHT22;7928;43.614;1.456;2023-02-15T13:59:22;22.20;92.30
15656;DHT22;7928;43.614;1.456;2023-02-15T14:01:56;23.30;92.10
15656;DHT22;7928;43.614;1.456;2023-02-15T14:04:53;25.20;90.60
15656;DHT22;7928;43.614;1.456;2023-02-15T14:07:36;26.20;87.40
15656;DHT22;7928;43.614;1.456;2023-02-15T14:10:25;25.30;83.90
15656;DHT22;7928;43.614;1.456;2023-02-15T14:13:15;24.90;85.40
15656;DHT22;7928;43.614;1.456;2023-02-15T14:15:50;25.90;83.00
15656;DHT22;7928;43.614;1.456;2023-02-15T14:18:27;27.50;82.40
15656;DHT22;7928;43.614;1.456;2023-02-15T14:21:05;28.80;78.40
15656;DHT22;7928;43.614;1.456;2023-02-15T14:23:47;28.20;78.90
15656;DHT22;7928;43.614;1.456;2023-02-15T14:26:26;28.30;77.90
15656;DHT22;7928;43.614;1.456;2023-02-15T14:29:05;27.50;74.90
15656;DHT22;7928;43.614;1.456;2023-02-15T14:31:37;25.90;76.50
15656;DHT22;7928;43.614;1.456;2023-02-15T14:34:18;26.60;75.60
15656;DHT22;7928;43.614;1.456;2023-02-15T14:36:47;28.10;75.20
15656;DHT22;7928;43.614;1.456;2023-02-15T14:39:24;29.20;73.00
15656;DHT22;7928;43.614;1.456;2023-02-15T14:42:17;28.40;72.90
15656;DHT22;7928;43.614;1.456;2023-02-15T14:44:49;27.90;71.70
15656;DHT22;7928;43.614;1.456;2023-02-15T14:47:21;27.70;70.50
15656;DHT22;7928;43.614;1.456;2023-02-15T14:49:49;28.00;69.00
15656;DHT22;7928;43.614;1.456;2023-02-15T14:52:16;28.50;69.10
15656;DHT22;7928;43.614;1.456;2023-02-15T14:54:59;26.20;67.60
15656;DHT22;7928;43.614;1.456;2023-02-15T14:57:36;26.10;71.80
15656;DHT22;7928;43.614;1.456;2023-02-15T15:00:33;25.80;72.10
15656;DHT22;7928;43.614;1.456;2023-02-15T15:03:11;26.10;72.20
15656;DHT22;7928;43.614;1.456;2023-02-15T15:05:48;26.90;71.50
15656;DHT22;7928;43.614;1.456;2023-02-15T15:08:25;26.50;71.10
15656;DHT22;7928;43.614;1.456;2023-02-15T15:10:53;27.50;70.00
15656;DHT22;7928;43.614;1.456;2023-02-15T15:13:52;26.80;70.40
15656;DHT22;7928;43.614;1.456;2023-02-15T15:16:30;28.10;69.20
15656;DHT22;7928;43.614;1.456;2023-02-15T15:18:58;27.60;67.90
15656;DHT22;7928;43.614;1.456;2023-02-15T15:21:56;28.20;68.00
15656;DHT22;7928;43.614;1.456;2023-02-15T15:24:48;29.00;67.20
15656;DHT22;7928;43.614;1.456;2023-02-15T15:27:40;28.90;67.50
15656;DHT22;7928;43.614;1.456;2023-02-15T15:42:49;27.20;68.10
15656;DHT22;7928;43.614;1.456;2023-02-15T15:48:37;25.90;70.30
15656;DHT22;7928;43.614;1.456;2023-02-15T15:51:11;25.40;71.40
15656;DHT22;7928;43.614;1.456;2023-02-15T15:53:41;25.10;72.70
15656;DHT22;7928;43.614;1.456;2023-02-15T15:56:15;25.20;72.80
15656;DHT22;7928;43.614;1.456;2023-02-15T15:58:49;24.70;73.10
15656;DHT22;7928;43.614;1.456;2023-02-15T16:01:20;23.50;74.20
15656;DHT22;7928;43.614;1.456;2023-02-15T16:03:51;23.30;75.50
15656;DHT22;7928;43.614;1.456;2023-02-15T16:06:32;22.10;76.00
15656;DHT22;7928;43.614;1.456;2023-02-15T16:09:15;22.00;78.20
15656;DHT22;7928;43.614;1.456;2023-02-15T16:11:42;21.50;79.40
15656;DHT22;7928;43.614;1.456;2023-02-15T16:14:16;21.50;78.90
15656;DHT22;7928;43.614;1.456;2023-02-15T16:16:49;21.30;80.50
15656;DHT22;7928;43.614;1.456;2023-02-15T16:19:23;21.80;80.70
15656;DHT22;7928;43.614;1.456;2023-02-15T16:21:51;21.90;79.90
15656;DHT22;7928;43.614;1.456;2023-02-15T16:24:25;21.50;80.70
15656;DHT22;7928;43.614;1.456;2023-02-15T16:27:14;20.90;82.00
15656;DHT22;7928;43.614;1.456;2023-02-15T16:29:45;20.30;84.90
15656;DHT22;7928;43.614;1.456;2023-02-15T16:32:18;18.90;90.10
15656;DHT22;7928;43.614;1.456;2023-02-15T16:34:57;18.40;92.20
15656;DHT22;7928;43.614;1.456;2023-02-15T16:37:26;18.10;93.70
15656;DHT22;7928;43.614;1.456;2023-02-15T16:39:54;18.00;94.40
15656;DHT22;7928;43.614;1.456;2023-02-15T16:42:23;17.30;95.00
15656;DHT22;7928;43.614;1.456;2023-02-15T16:44:55;16.90;99.90
15656;DHT22;7928;43.614;1.456;2023-02-15T16:47:28;16.70;1.00
15656;DHT22;7928;43.614;1.456;2023-02-15T16:49:59;16.80;1.00
15656;DHT22;7928;43.614;1.456;2023-02-15T16:52:28;16.70;1.00
15656;DHT22;7928;43.614;1.456;2023-02-15T16:54:58;16.60;1.00